Chrisanthi — SX7108 — position and weather

sailwx.info

Track history (hours):
 
Tides and Currents Weather Stations Pressure Air Temp Water Temp Dewpoint Dewpoint Depression Visibility Wind Speed Wind Dir Waves Ship Positions

Chrisanthi

Last reported at 2015-May-23 06:33 UTC. Time now 2015-May-27 07:51 UTC.
Position N 37°57' E 023°33'.

Length 56 m; draft 3.9 m.

Type: Tanker. MMSI: 237009100.

Date/timePositionNaut miles runAvg speedWind from/ knotsBaromVisibWave heightAir tempDewpointWater temp
2015-May-23 06:33N 37°57' E 023°33'0 0.0
2015-May-23 05:33N 37°57' E 023°33'0 0.0
2015-May-23 04:33N 37°57' E 023°33'0 0.0
2015-May-23 03:33N 37°57' E 023°33'0 0.0
2015-May-23 02:33N 37°57' E 023°33'0 0.0
2015-May-23 01:33N 37°57' E 023°33'0 0.0
2015-May-23 00:33N 37°57' E 023°33'0 0.0
2015-May-22 23:33N 37°57' E 023°33'0 0.0
2015-May-22 22:33N 37°57' E 023°33'0 0.0
2015-May-22 21:33N 37°57' E 023°33'0 0.0
2015-May-22 20:33N 37°57' E 023°33'0 0.0
2015-May-22 19:33N 37°57' E 023°33'0 0.0
2015-May-22 18:33N 37°57' E 023°33'0 0.0
2015-May-22 17:33N 37°57' E 023°33'0 0.0
2015-May-22 16:33N 37°57' E 023°33'0 0.0
2015-May-22 15:33N 37°57' E 023°33'0 0.0
2015-May-22 14:33N 37°57' E 023°33'0 0.0
2015-May-22 13:33N 37°57' E 023°33'0 0.0
2015-May-22 12:33N 37°57' E 023°33'0 0.0
2015-May-22 11:33N 37°57' E 023°33'0 0.0
2015-May-22 10:33N 37°57' E 023°33'0 0.2
2015-May-22 09:33N 37°57' E 023°33'0 0.1
2015-May-22 08:33N 37°57' E 023°33'1 1.0
2015-May-22 07:33N 37°57' E 023°35'2 1.7
2015-May-22 06:33N 37°56' E 023°35'1110.8
2015-May-22 05:33N 37°46' E 023°42'5410.1
2015-May-22 00:12N 37°23' E 024°44'710.4
2015-May-21 23:33N 37°21' E 024°52'1110.7
2015-May-21 22:33N 37°19' E 025°05'1110.7
2015-May-21 21:33N 37°17' E 025°18'1010.2
2015-May-21 20:33N 37°14' E 025°31'1010.2
2015-May-21 19:33N 37°12' E 025°43'42 0.9
2015-May-19 19:18N 36°35' E 026°07'810.4
2015-May-19 18:33N 36°31' E 025°58'1110.5
2015-May-19 17:33N 36°26' E 025°47'1010.4
2015-May-19 16:33N 36°22' E 025°35'10 9.9
2015-May-19 15:33N 36°20' E 025°23'4 4.0
2015-May-19 14:32N 36°23' E 025°26'0 0.0
2015-May-19 13:33N 36°23' E 025°26'0 0.0
2015-May-19 12:33N 36°23' E 025°26'0 0.0
2015-May-19 11:32N 36°23' E 025°26'0 0.0
2015-May-19 10:33N 36°23' E 025°26'0 0.0
2015-May-19 09:33N 36°23' E 025°26'0 0.0
2015-May-19 08:33N 36°23' E 025°26'0 0.0
2015-May-19 07:32N 36°23' E 025°26'1 0.7
2015-May-19 06:33N 36°23' E 025°25'1 1.3
2015-May-19 05:32N 36°24' E 025°23'0 0.0
2015-May-19 04:33N 36°24' E 025°23'0 0.0
2015-May-19 03:32N 36°24' E 025°23'0 0.0
2015-May-19 02:32N 36°24' E 025°23'0 0.0
2015-May-19 01:29N 36°24' E 025°23'3 3.5
2015-May-19 00:33N 36°21' E 025°20'9 9.4
2015-May-18 23:33N 36°19' E 025°32'1010.1
2015-May-18 22:33N 36°20' E 025°44'2 1.6
2015-May-18 21:33N 36°21' E 025°46'0 0.0
2015-May-18 20:33N 36°21' E 025°46'9 8.5
2015-May-18 19:33N 36°25' E 025°37'10 9.9
2015-May-18 18:33N 36°32' E 025°28'37 4.6
2015-May-18 10:33N 37°05' E 025°07'2 0.9
2015-May-18 08:33N 37°06' E 025°08'0 0.0
2015-May-18 07:33N 37°06' E 025°08'0 0.0
2015-May-18 03:32N 37°06' E 025°08'0 0.0
2015-May-18 02:33N 37°06' E 025°08'0 0.0
2015-May-18 01:33N 37°06' E 025°08'5 4.8
2015-May-18 00:33N 37°09' E 025°12'6 6.4
2015-May-17 23:33N 37°05' E 025°18'16 8.0
2015-May-17 21:33N 36°55' E 025°34'2 1.7
2015-May-17 20:33N 36°56' E 025°36'14 6.8
2015-May-17 18:33N 36°60' E 025°20'7 7.0
2015-May-17 17:33N 37°06' E 025°22'0 0.0
2015-May-17 16:33N 37°06' E 025°22'0 0.0
2015-May-17 15:33N 37°06' E 025°22'0 0.0
2015-May-17 14:33N 37°06' E 025°22'0 0.0
2015-May-17 13:33N 37°06' E 025°22'8 8.4
2015-May-17 12:33N 37°11' E 025°14'1010.3
2015-May-17 11:33N 37°15' E 025°02'10 9.9
2015-May-17 10:33N 37°18' E 024°50'5310.0
2015-May-17 05:17N 37°38' E 023°48'7 9.2
2015-May-17 04:33N 37°42' E 023°41'10 9.6
2015-May-17 03:33N 37°49' E 023°34'10 9.9
2015-May-17 02:33N 37°51' E 023°22'1010.0
2015-May-17 01:32N 37°54' E 023°09'4 0.3
2015-May-16 14:28N 37°55' E 023°05'0 0.0
2015-May-16 13:28N 37°55' E 023°05'0 0.0
2015-May-16 11:32N 37°55' E 023°05'0 0.0
2015-May-16 06:16N 37°55' E 023°05'3 0.9
2015-May-16 03:15N 37°54' E 023°08'1010.4
2015-May-16 02:18N 37°52' E 023°20'810.6
2015-May-16 01:33N 37°50' E 023°30'9 9.3
2015-May-16 00:33N 37°47' E 023°41'1110.2
2015-May-15 23:31N 37°39' E 023°49'5110.2
2015-May-15 18:33N 37°22' E 024°49'1110.6
2015-May-15 17:33N 37°19' E 025°02'1010.3
2015-May-15 16:33N 37°17' E 025°15'1010.3
2015-May-15 15:33N 37°15' E 025°27'1010.2
2015-May-15 14:33N 37°12' E 025°40'66 3.1
2015-May-14 17:16N 36°56' E 026°60'7 9.4
2015-May-14 16:33N 36°57' E 026°51'5210.1
2015-May-14 11:22N 37°10' E 025°48'1110.3
2015-May-14 10:15N 37°13' E 025°34'710.2
2015-May-14 09:33N 37°15' E 025°25'1010.2
2015-May-14 08:33N 37°17' E 025°13'10 9.9
2015-May-14 07:33N 37°19' E 025°01'10 9.7
2015-May-14 06:33N 37°22' E 024°49'49 9.8
2015-May-14 01:32N 37°36' E 023°50'10 9.8
2015-May-14 00:32N 37°43' E 023°40'9 9.4
2015-May-13 23:33N 37°49' E 023°32'1010.2
2015-May-13 22:33N 37°51' E 023°19'1110.3
2015-May-13 21:29N 37°54' E 023°06'  
Track history (hours):
 
Tides and Currents Weather Stations Pressure Air Temp Water Temp Dewpoint Dewpoint Depression Visibility Wind Speed Wind Dir Waves Ship Positions

Chrisanthi

Last reported at 2015-May-23 06:33 UTC. Time now 2015-May-27 07:51 UTC.
Position N 37°57' E 023°33'.

Length 56 m; draft 3.9 m.

Type: Tanker. MMSI: 237009100.

Date/timePositionNaut miles runAvg speedWind from/ knotsBaromVisibWave heightAir tempDewpointWater temp
2015-May-23 06:33N 37°57' E 023°33'0 0.0
2015-May-23 05:33N 37°57' E 023°33'0 0.0
2015-May-23 04:33N 37°57' E 023°33'0 0.0
2015-May-23 03:33N 37°57' E 023°33'0 0.0
2015-May-23 02:33N 37°57' E 023°33'0 0.0
2015-May-23 01:33N 37°57' E 023°33'0 0.0
2015-May-23 00:33N 37°57' E 023°33'0 0.0
2015-May-22 23:33N 37°57' E 023°33'0 0.0
2015-May-22 22:33N 37°57' E 023°33'0 0.0
2015-May-22 21:33N 37°57' E 023°33'0 0.0
2015-May-22 20:33N 37°57' E 023°33'0 0.0
2015-May-22 19:33N 37°57' E 023°33'0 0.0
2015-May-22 18:33N 37°57' E 023°33'0 0.0
2015-May-22 17:33N 37°57' E 023°33'0 0.0
2015-May-22 16:33N 37°57' E 023°33'0 0.0
2015-May-22 15:33N 37°57' E 023°33'0 0.0
2015-May-22 14:33N 37°57' E 023°33'0 0.0
2015-May-22 13:33N 37°57' E 023°33'0 0.0
2015-May-22 12:33N 37°57' E 023°33'0 0.0
2015-May-22 11:33N 37°57' E 023°33'0 0.0
2015-May-22 10:33N 37°57' E 023°33'0 0.2
2015-May-22 09:33N 37°57' E 023°33'0 0.1
2015-May-22 08:33N 37°57' E 023°33'1 1.0
2015-May-22 07:33N 37°57' E 023°35'2 1.7
2015-May-22 06:33N 37°56' E 023°35'1110.8
2015-May-22 05:33N 37°46' E 023°42'5410.1
2015-May-22 00:12N 37°23' E 024°44'710.4
2015-May-21 23:33N 37°21' E 024°52'1110.7
2015-May-21 22:33N 37°19' E 025°05'1110.7
2015-May-21 21:33N 37°17' E 025°18'1010.2
2015-May-21 20:33N 37°14' E 025°31'1010.2
2015-May-21 19:33N 37°12' E 025°43'42 0.9
2015-May-19 19:18N 36°35' E 026°07'810.4
2015-May-19 18:33N 36°31' E 025°58'1110.5
2015-May-19 17:33N 36°26' E 025°47'1010.4
2015-May-19 16:33N 36°22' E 025°35'10 9.9
2015-May-19 15:33N 36°20' E 025°23'4 4.0
2015-May-19 14:32N 36°23' E 025°26'0 0.0
2015-May-19 13:33N 36°23' E 025°26'0 0.0
2015-May-19 12:33N 36°23' E 025°26'0 0.0
2015-May-19 11:32N 36°23' E 025°26'0 0.0
2015-May-19 10:33N 36°23' E 025°26'0 0.0
2015-May-19 09:33N 36°23' E 025°26'0 0.0
2015-May-19 08:33N 36°23' E 025°26'0 0.0
2015-May-19 07:32N 36°23' E 025°26'1 0.7
2015-May-19 06:33N 36°23' E 025°25'1 1.3
2015-May-19 05:32N 36°24' E 025°23'0 0.0
2015-May-19 04:33N 36°24' E 025°23'0 0.0
2015-May-19 03:32N 36°24' E 025°23'0 0.0
2015-May-19 02:32N 36°24' E 025°23'0 0.0
2015-May-19 01:29N 36°24' E 025°23'3 3.5
2015-May-19 00:33N 36°21' E 025°20'9 9.4
2015-May-18 23:33N 36°19' E 025°32'1010.1
2015-May-18 22:33N 36°20' E 025°44'2 1.6
2015-May-18 21:33N 36°21' E 025°46'0 0.0
2015-May-18 20:33N 36°21' E 025°46'9 8.5
2015-May-18 19:33N 36°25' E 025°37'10 9.9
2015-May-18 18:33N 36°32' E 025°28'37 4.6
2015-May-18 10:33N 37°05' E 025°07'2 0.9
2015-May-18 08:33N 37°06' E 025°08'0 0.0
2015-May-18 07:33N 37°06' E 025°08'0 0.0
2015-May-18 03:32N 37°06' E 025°08'0 0.0
2015-May-18 02:33N 37°06' E 025°08'0 0.0
2015-May-18 01:33N 37°06' E 025°08'5 4.8
2015-May-18 00:33N 37°09' E 025°12'6 6.4
2015-May-17 23:33N 37°05' E 025°18'16 8.0
2015-May-17 21:33N 36°55' E 025°34'2 1.7
2015-May-17 20:33N 36°56' E 025°36'14 6.8
2015-May-17 18:33N 36°60' E 025°20'7 7.0
2015-May-17 17:33N 37°06' E 025°22'0 0.0
2015-May-17 16:33N 37°06' E 025°22'0 0.0
2015-May-17 15:33N 37°06' E 025°22'0 0.0
2015-May-17 14:33N 37°06' E 025°22'0 0.0
2015-May-17 13:33N 37°06' E 025°22'8 8.4
2015-May-17 12:33N 37°11' E 025°14'1010.3
2015-May-17 11:33N 37°15' E 025°02'10 9.9
2015-May-17 10:33N 37°18' E 024°50'5310.0
2015-May-17 05:17N 37°38' E 023°48'7 9.2
2015-May-17 04:33N 37°42' E 023°41'10 9.6
2015-May-17 03:33N 37°49' E 023°34'10 9.9
2015-May-17 02:33N 37°51' E 023°22'1010.0
2015-May-17 01:32N 37°54' E 023°09'4 0.3
2015-May-16 14:28N 37°55' E 023°05'0 0.0
2015-May-16 13:28N 37°55' E 023°05'0 0.0
2015-May-16 11:32N 37°55' E 023°05'0 0.0
2015-May-16 06:16N 37°55' E 023°05'3 0.9
2015-May-16 03:15N 37°54' E 023°08'1010.4
2015-May-16 02:18N 37°52' E 023°20'810.6
2015-May-16 01:33N 37°50' E 023°30'9 9.3
2015-May-16 00:33N 37°47' E 023°41'1110.2
2015-May-15 23:31N 37°39' E 023°49'5110.2
2015-May-15 18:33N 37°22' E 024°49'1110.6
2015-May-15 17:33N 37°19' E 025°02'1010.3
2015-May-15 16:33N 37°17' E 025°15'1010.3
2015-May-15 15:33N 37°15' E 025°27'1010.2
2015-May-15 14:33N 37°12' E 025°40'66 3.1
2015-May-14 17:16N 36°56' E 026°60'7 9.4
2015-May-14 16:33N 36°57' E 026°51'5210.1
2015-May-14 11:22N 37°10' E 025°48'1110.3
2015-May-14 10:15N 37°13' E 025°34'710.2
2015-May-14 09:33N 37°15' E 025°25'1010.2
2015-May-14 08:33N 37°17' E 025°13'10 9.9
2015-May-14 07:33N 37°19' E 025°01'10 9.7
2015-May-14 06:33N 37°22' E 024°49'49 9.8
2015-May-14 01:32N 37°36' E 023°50'10 9.8
2015-May-14 00:32N 37°43' E 023°40'9 9.4
2015-May-13 23:33N 37°49' E 023°32'1010.2
2015-May-13 22:33N 37°51' E 023°19'1110.3
2015-May-13 21:29N 37°54' E 023°06'  

Dump ship's entire track history